Coulee City, Washington
Current Conditions -  °F | °C
As of 4:53 PM on Saturday 22 Nov 2014 (Local Time) from KEPH Reporting Station
Clear Clear  
Wind Chill: 32°   Ceiling: Unl
Heat Index: 38°   Visibility: 10mi
Dew Point: 32°   Wind: 8mph
Humidity: 79%   Direction: 260°W
Pressure: 29.82"   Gusts: NA
Location:  47.61°N, 119.29°W
Report Text: KEPH 230053Z AUTO 26007KT 10SM CLR 03/00 A2982 RMK AO2 SLP106 T00330000
Loading
Personal Weather Stations






























Interactive Weather Map New forecast layout! Learn more

10-Day Weather Forecast

Advertisements
Track Severe Weather on mobile